createdAt,value
2023-04-26T00:00:43.059Z,1007.48
2023-04-26T00:01:43.058Z,1007.5
2023-04-26T00:02:43.128Z,1007.53
2023-04-26T00:03:43.494Z,1007.52
2023-04-26T00:04:46.527Z,1007.54
2023-04-26T00:05:45.863Z,1007.54
2023-04-26T00:06:49.611Z,1007.54
2023-04-26T00:07:50.750Z,1007.53
2023-04-26T00:09:43.060Z,1007.58
2023-04-26T00:10:43.075Z,1007.56
2023-04-26T00:11:43.066Z,1007.58
2023-04-26T00:12:43.063Z,1007.61
2023-04-26T00:13:43.100Z,1007.6
2023-04-26T00:14:43.047Z,1007.62
2023-04-26T00:15:43.070Z,1007.64
2023-04-26T00:16:43.162Z,1007.66
2023-04-26T00:17:43.171Z,1007.67
2023-04-26T00:18:43.082Z,1007.66
2023-04-26T00:19:43.071Z,1007.66
2023-04-26T00:20:43.064Z,1007.68
2023-04-26T00:21:43.062Z,1007.69
2023-04-26T00:22:43.145Z,1007.67
2023-04-26T00:23:43.076Z,1007.67
2023-04-26T00:24:43.055Z,1007.67
2023-04-26T00:25:43.304Z,1007.69
2023-04-26T00:26:46.051Z,1007.67
2023-04-26T00:27:49.634Z,1007.68
2023-04-26T00:28:50.997Z,1007.68
2023-04-26T00:30:43.066Z,1007.68
2023-04-26T00:31:43.101Z,1007.66
2023-04-26T00:32:43.118Z,1007.7
2023-04-26T00:33:43.081Z,1007.66
2023-04-26T00:34:43.063Z,1007.7
2023-04-26T00:35:43.059Z,1007.69
2023-04-26T00:36:43.060Z,1007.67
2023-04-26T00:37:43.050Z,1007.65
2023-04-26T00:38:43.070Z,1007.68
2023-04-26T00:39:43.070Z,1007.67
2023-04-26T00:40:43.058Z,1007.64
2023-04-26T00:41:43.057Z,1007.63
2023-04-26T00:42:43.054Z,1007.65
2023-04-26T00:43:43.135Z,1007.65
2023-04-26T00:44:43.071Z,1007.61
2023-04-26T00:45:43.093Z,1007.63
2023-04-26T00:46:43.428Z,1007.61
2023-04-26T00:47:46.978Z,1007.6
2023-04-26T00:48:49.184Z,1007.62
2023-04-26T00:49:49.704Z,1007.6
2023-04-26T00:50:43.058Z,1007.61
2023-04-26T00:51:43.058Z,1007.58
2023-04-26T00:52:43.048Z,1007.57
2023-04-26T00:53:43.078Z,1007.56
2023-04-26T00:54:43.061Z,1007.55
2023-04-26T00:55:43.056Z,1007.57
2023-04-26T00:56:43.061Z,1007.57
2023-04-26T00:57:43.059Z,1007.59
2023-04-26T00:58:43.086Z,1007.55
2023-04-26T00:59:43.067Z,1007.57
2023-04-26T01:00:43.073Z,1007.58
2023-04-26T01:01:43.126Z,1007.57
2023-04-26T01:02:43.116Z,1007.56
2023-04-26T01:03:43.215Z,1007.58
2023-04-26T01:04:43.049Z,1007.54
2023-04-26T01:05:43.077Z,1007.57
2023-04-26T01:06:43.095Z,1007.57
2023-04-26T01:07:44.108Z,1007.55
2023-04-26T01:08:47.152Z,1007.59
2023-04-26T01:09:49.918Z,1007.59
2023-04-26T01:10:49.804Z,1007.63
2023-04-26T01:11:43.119Z,1007.6
2023-04-26T01:12:43.054Z,1007.58
2023-04-26T01:13:43.060Z,1007.55
2023-04-26T01:14:43.081Z,1007.58
2023-04-26T01:15:43.046Z,1007.61
2023-04-26T01:16:43.115Z,1007.61
2023-04-26T01:17:43.161Z,1007.63
2023-04-26T01:18:43.077Z,1007.64
2023-04-26T01:19:43.078Z,1007.63
2023-04-26T01:20:43.340Z,1007.63
2023-04-26T01:21:43.375Z,1007.65
2023-04-26T01:22:43.063Z,1007.67
2023-04-26T01:23:43.060Z,1007.67
2023-04-26T01:24:43.079Z,1007.65
2023-04-26T01:25:43.093Z,1007.66
2023-04-26T01:26:43.118Z,1007.72
2023-04-26T01:27:43.059Z,1007.67
2023-04-26T01:28:43.542Z,1007.69
2023-04-26T01:29:47.220Z,1007.71
2023-04-26T01:30:50.165Z,1007.66
2023-04-26T01:31:49.434Z,1007.65
2023-04-26T01:32:43.105Z,1007.65
2023-04-26T01:33:43.074Z,1007.65
2023-04-26T01:34:43.055Z,1007.62
2023-04-26T01:35:43.126Z,1007.59
2023-04-26T01:36:43.052Z,1007.63
2023-04-26T01:37:43.265Z,1007.61
2023-04-26T01:38:43.059Z,1007.61
2023-04-26T01:39:43.060Z,1007.61
2023-04-26T01:40:43.068Z,1007.62
2023-04-26T01:41:43.070Z,1007.62
2023-04-26T01:42:43.063Z,1007.58
2023-04-26T01:43:43.060Z,1007.62
2023-04-26T01:44:43.113Z,1007.61
2023-04-26T01:45:43.050Z,1007.64
2023-04-26T01:46:43.102Z,1007.65
2023-04-26T01:47:43.229Z,1007.66
2023-04-26T01:48:43.207Z,1007.63
2023-04-26T01:49:43.860Z,1007.64
2023-04-26T01:50:47.230Z,1007.63
2023-04-26T01:51:50.252Z,1007.65
2023-04-26T01:52:49.548Z,1007.62
2023-04-26T01:53:43.163Z,1007.63
2023-04-26T01:54:43.094Z,1007.66
2023-04-26T01:55:43.109Z,1007.65
2023-04-26T01:56:43.053Z,1007.63
2023-04-26T01:57:43.106Z,1007.65
2023-04-26T01:58:43.315Z,1007.67
2023-04-26T01:59:43.050Z,1007.64
2023-04-26T02:00:43.049Z,1007.69
2023-04-26T02:01:43.124Z,1007.63
2023-04-26T02:02:43.249Z,1007.65
2023-04-26T02:03:43.142Z,1007.71
2023-04-26T02:04:43.065Z,1007.67
2023-04-26T02:05:43.060Z,1007.67
2023-04-26T02:06:43.049Z,1007.67
2023-04-26T02:07:43.053Z,1007.68
2023-04-26T02:08:43.052Z,1007.67
2023-04-26T02:09:43.118Z,1007.63
2023-04-26T02:10:43.858Z,1007.62
2023-04-26T02:11:47.284Z,1007.62
2023-04-26T02:12:50.270Z,1007.65
2023-04-26T02:13:49.583Z,1007.65
2023-04-26T02:14:43.112Z,1007.64
2023-04-26T02:15:43.512Z,1007.65
2023-04-26T02:16:43.127Z,1007.63
2023-04-26T02:17:43.260Z,1007.63
2023-04-26T02:18:43.052Z,1007.66
2023-04-26T02:19:43.050Z,1007.65
2023-04-26T02:20:43.067Z,1007.64
2023-04-26T02:21:43.155Z,1007.66
2023-04-26T02:22:43.072Z,1007.66
2023-04-26T02:23:43.060Z,1007.71
2023-04-26T02:24:43.081Z,1007.69
2023-04-26T02:25:43.050Z,1007.68
2023-04-26T02:26:43.054Z,1007.68
2023-04-26T02:27:43.082Z,1007.69
2023-04-26T02:28:43.067Z,1007.69
2023-04-26T02:29:47.194Z,1007.74
2023-04-26T02:31:44.001Z,1007.71
2023-04-26T02:32:47.559Z,1007.7
2023-04-26T02:33:50.449Z,1007.74
2023-04-26T02:34:49.756Z,1007.73
2023-04-26T02:35:43.055Z,1007.74
2023-04-26T02:36:43.234Z,1007.71
2023-04-26T02:37:43.067Z,1007.73
2023-04-26T02:38:43.082Z,1007.71
2023-04-26T02:39:43.058Z,1007.74
2023-04-26T02:40:43.061Z,1007.75
2023-04-26T02:41:43.055Z,1007.78
2023-04-26T02:42:43.057Z,1007.76
2023-04-26T02:43:43.105Z,1007.78
2023-04-26T02:44:43.058Z,1007.78
2023-04-26T02:45:43.129Z,1007.71
2023-04-26T02:46:43.117Z,1007.75
2023-04-26T02:47:43.061Z,1007.74
2023-04-26T02:48:43.064Z,1007.77
2023-04-26T02:49:43.057Z,1007.77
2023-04-26T02:50:43.066Z,1007.79
2023-04-26T02:51:43.048Z,1007.8
2023-04-26T02:52:43.042Z,1007.77
2023-04-26T02:53:44.408Z,1007.78
2023-04-26T02:54:47.799Z,1007.76
2023-04-26T02:55:49.249Z,1007.8
2023-04-26T02:57:43.082Z,1007.79
2023-04-26T02:58:43.064Z,1007.78
2023-04-26T02:59:43.048Z,1007.8
2023-04-26T03:00:43.069Z,1007.77
2023-04-26T03:01:43.051Z,1007.81
2023-04-26T03:02:43.139Z,1007.77
2023-04-26T03:03:43.099Z,1007.79
2023-04-26T03:04:43.060Z,1007.82
2023-04-26T03:05:43.055Z,1007.82
2023-04-26T03:06:43.055Z,1007.79
2023-04-26T03:07:43.050Z,1007.79
2023-04-26T03:08:43.078Z,1007.75
2023-04-26T03:09:43.060Z,1007.79
2023-04-26T03:10:43.061Z,1007.78
2023-04-26T03:11:43.064Z,1007.76
2023-04-26T03:12:43.045Z,1007.76
2023-04-26T03:13:43.170Z,1007.77
2023-04-26T03:14:44.534Z,1007.75
2023-04-26T03:15:47.886Z,1007.74
2023-04-26T03:16:50.118Z,1007.75
2023-04-26T03:18:43.075Z,1007.8
2023-04-26T03:19:43.055Z,1007.74
2023-04-26T03:20:43.080Z,1007.76
2023-04-26T03:21:43.085Z,1007.72
2023-04-26T03:22:43.078Z,1007.75
2023-04-26T03:23:43.109Z,1007.74
2023-04-26T03:24:43.047Z,1007.7
2023-04-26T03:25:43.059Z,1007.72
2023-04-26T03:26:43.225Z,1007.73
2023-04-26T03:27:43.084Z,1007.72
2023-04-26T03:28:43.087Z,1007.65
2023-04-26T03:29:46.178Z,1007.68
2023-04-26T03:31:43.103Z,1007.65
2023-04-26T03:32:43.082Z,1007.66
2023-04-26T03:33:43.076Z,1007.68
2023-04-26T03:34:43.061Z,1007.66
2023-04-26T03:35:44.753Z,1007.67
2023-04-26T03:36:48.099Z,1007.64
2023-04-26T03:37:53.250Z,1007.67
2023-04-26T03:39:43.059Z,1007.7
2023-04-26T03:40:43.063Z,1007.69
2023-04-26T03:41:43.045Z,1007.66
2023-04-26T03:42:43.387Z,1007.67
2023-04-26T03:43:43.105Z,1007.69
2023-04-26T03:44:43.076Z,1007.67
2023-04-26T03:45:43.059Z,1007.71
2023-04-26T03:46:43.062Z,1007.71
2023-04-26T03:47:43.089Z,1007.69
2023-04-26T03:48:43.066Z,1007.69
2023-04-26T03:49:43.054Z,1007.7
2023-04-26T03:50:43.060Z,1007.74
2023-04-26T03:51:43.067Z,1007.71
2023-04-26T03:52:43.068Z,1007.68
2023-04-26T03:53:43.059Z,1007.67
2023-04-26T03:54:43.051Z,1007.68
2023-04-26T03:55:43.078Z,1007.64
2023-04-26T03:56:44.773Z,1007.63
2023-04-26T03:57:48.177Z,1007.63
2023-04-26T03:58:50.599Z,1007.62
2023-04-26T04:00:43.054Z,1007.66
2023-04-26T04:01:43.378Z,1007.63
2023-04-26T04:02:43.159Z,1007.62
2023-04-26T04:03:44.147Z,1007.64
2023-04-26T04:04:43.201Z,1007.64
2023-04-26T04:05:43.133Z,1007.67
2023-04-26T04:06:43.050Z,1007.66
2023-04-26T04:07:43.142Z,1007.66
2023-04-26T04:08:43.227Z,1007.67
2023-04-26T04:09:43.077Z,1007.66
2023-04-26T04:10:43.061Z,1007.66
2023-04-26T04:11:43.059Z,1007.63
2023-04-26T04:12:43.056Z,1007.65
2023-04-26T04:13:43.098Z,1007.65
2023-04-26T04:14:43.110Z,1007.64
2023-04-26T04:15:43.060Z,1007.63
2023-04-26T04:16:43.049Z,1007.62
2023-04-26T04:17:45.559Z,1007.62
2023-04-26T04:18:48.083Z,1007.66
2023-04-26T04:19:51.105Z,1007.65
2023-04-26T04:21:43.052Z,1007.67
2023-04-26T04:22:43.064Z,1007.68
2023-04-26T04:23:43.055Z,1007.66
2023-04-26T04:24:43.052Z,1007.68
2023-04-26T04:25:43.072Z,1007.67
2023-04-26T04:26:43.068Z,1007.7
2023-04-26T04:27:43.055Z,1007.67
2023-04-26T04:28:43.050Z,1007.72
2023-04-26T04:29:43.064Z,1007.67
2023-04-26T04:30:43.067Z,1007.71
2023-04-26T04:31:43.146Z,1007.7
2023-04-26T04:32:43.066Z,1007.7
2023-04-26T04:33:43.059Z,1007.7
2023-04-26T04:34:43.168Z,1007.71
2023-04-26T04:35:43.213Z,1007.72
2023-04-26T04:36:43.061Z,1007.72
2023-04-26T04:37:43.065Z,1007.71
2023-04-26T04:38:45.281Z,1007.69
2023-04-26T04:39:48.125Z,1007.72
2023-04-26T04:40:50.872Z,1007.74
2023-04-26T04:42:43.050Z,1007.76
2023-04-26T04:43:43.055Z,1007.76
2023-04-26T04:44:43.057Z,1007.79
2023-04-26T04:45:43.091Z,1007.78
2023-04-26T04:46:43.060Z,1007.74
2023-04-26T04:47:43.092Z,1007.75
2023-04-26T04:48:43.062Z,1007.74
2023-04-26T04:49:43.052Z,1007.77
2023-04-26T04:50:43.062Z,1007.76
2023-04-26T04:51:43.057Z,1007.77
2023-04-26T04:52:43.076Z,1007.75
2023-04-26T04:53:43.099Z,1007.74
2023-04-26T04:54:43.052Z,1007.77
2023-04-26T04:55:43.053Z,1007.77
2023-04-26T04:56:43.192Z,1007.81
2023-04-26T04:57:46.202Z,1007.8
2023-04-26T04:59:45.640Z,1007.77
2023-04-26T05:00:48.214Z,1007.76
2023-04-26T05:01:49.193Z,1007.84
2023-04-26T05:03:43.527Z,1007.84
2023-04-26T05:04:43.412Z,1007.85
2023-04-26T05:05:43.058Z,1007.85
2023-04-26T05:06:43.367Z,1007.87
2023-04-26T05:07:43.056Z,1007.84
2023-04-26T05:08:43.415Z,1007.87
2023-04-26T05:09:43.056Z,1007.87
2023-04-26T05:10:43.057Z,1007.85
2023-04-26T05:11:43.078Z,1007.86
2023-04-26T05:12:43.046Z,1007.87
2023-04-26T05:13:43.064Z,1007.87
2023-04-26T05:14:43.186Z,1007.89
2023-04-26T05:15:43.053Z,1007.88
2023-04-26T05:16:43.342Z,1007.88
2023-04-26T05:17:43.068Z,1007.91
2023-04-26T05:18:43.062Z,1007.86
2023-04-26T05:19:43.054Z,1007.91
2023-04-26T05:20:45.750Z,1007.91
2023-04-26T05:21:48.338Z,1007.92
2023-04-26T05:22:49.314Z,1007.92
2023-04-26T05:24:43.057Z,1007.93
2023-04-26T05:25:43.066Z,1007.94
2023-04-26T05:26:43.065Z,1007.95
2023-04-26T05:27:43.066Z,1007.99
2023-04-26T05:28:43.063Z,1007.97
2023-04-26T05:29:43.082Z,1007.99
2023-04-26T05:30:43.049Z,1008
2023-04-26T05:31:43.356Z,1008.04
2023-04-26T05:32:43.134Z,1008
2023-04-26T05:33:43.057Z,1008
2023-04-26T05:34:43.104Z,1008.03
2023-04-26T05:35:43.074Z,1008.03
2023-04-26T05:36:43.060Z,1008.03
2023-04-26T05:37:43.072Z,1008.02
2023-04-26T05:38:43.055Z,1008.04
2023-04-26T05:39:43.059Z,1008.01
2023-04-26T05:40:43.186Z,1008.02
2023-04-26T05:41:45.530Z,1008.04
2023-04-26T05:42:48.486Z,1008.01
2023-04-26T05:43:50.265Z,1008.05
2023-04-26T05:45:43.367Z,1008.03
2023-04-26T05:46:43.068Z,1008.05
2023-04-26T05:47:43.085Z,1008.09
2023-04-26T05:48:43.396Z,1008.07
2023-04-26T05:49:43.060Z,1008.07
2023-04-26T05:50:43.117Z,1008.08
2023-04-26T05:51:43.063Z,1008.07
2023-04-26T05:52:43.057Z,1008.07
2023-04-26T05:53:43.056Z,1008.06
2023-04-26T05:54:43.077Z,1008.07
2023-04-26T05:55:43.054Z,1008.11
2023-04-26T05:56:43.060Z,1008.13
2023-04-26T05:57:43.072Z,1008.12
2023-04-26T05:58:43.053Z,1008.12
2023-04-26T05:59:43.053Z,1008.15
2023-04-26T06:00:43.063Z,1008.17
2023-04-26T06:01:43.062Z,1008.13
2023-04-26T06:02:43.135Z,1008.13
2023-04-26T06:03:44.888Z,1008.11
2023-04-26T06:04:47.587Z,1008.13
2023-04-26T06:05:48.881Z,1008.16
2023-04-26T06:07:43.054Z,1008.2
2023-04-26T06:08:43.124Z,1008.21
2023-04-26T06:09:43.062Z,1008.22
2023-04-26T06:10:43.073Z,1008.2
2023-04-26T06:11:43.074Z,1008.21
2023-04-26T06:12:43.051Z,1008.2
2023-04-26T06:13:43.060Z,1008.22
2023-04-26T06:14:43.064Z,1008.27
2023-04-26T06:15:43.060Z,1008.27
2023-04-26T06:16:46.110Z,1008.32
2023-04-26T06:18:43.073Z,1008.3
2023-04-26T06:19:43.050Z,1008.22
2023-04-26T06:20:43.062Z,1008.2
2023-04-26T06:21:43.070Z,1008.18
2023-04-26T06:22:43.050Z,1008.16
2023-04-26T06:23:43.493Z,1008.18
2023-04-26T06:24:45.739Z,1008.18
2023-04-26T06:25:48.676Z,1008.19
2023-04-26T06:26:50.415Z,1008.22
2023-04-26T06:28:46.069Z,1008.27
2023-04-26T06:30:43.065Z,1008.29
2023-04-26T06:31:43.084Z,1008.32
2023-04-26T06:32:43.100Z,1008.35
2023-04-26T06:33:43.054Z,1008.35
2023-04-26T06:34:43.056Z,1008.31
2023-04-26T06:35:43.070Z,1008.33
2023-04-26T06:36:43.051Z,1008.33
2023-04-26T06:37:43.082Z,1008.34
2023-04-26T06:38:43.070Z,1008.32
2023-04-26T06:39:43.047Z,1008.25
2023-04-26T06:40:43.060Z,1008.26
2023-04-26T06:41:43.062Z,1008.22
2023-04-26T06:42:43.082Z,1008.26
2023-04-26T06:43:43.056Z,1008.22
2023-04-26T06:44:43.191Z,1008.3
2023-04-26T06:45:46.835Z,1008.26
2023-04-26T06:46:48.887Z,1008.25
2023-04-26T06:47:50.584Z,1008.25
2023-04-26T06:49:43.060Z,1008.19
2023-04-26T06:50:43.059Z,1008.22
2023-04-26T06:51:43.054Z,1008.21
2023-04-26T06:52:43.058Z,1008.23
2023-04-26T06:53:43.076Z,1008.19
2023-04-26T06:54:56.362Z,1008.19
2023-04-26T06:56:43.107Z,1008.26
2023-04-26T06:57:43.047Z,1008.24
2023-04-26T06:58:43.062Z,1008.25
2023-04-26T06:59:43.139Z,1008.22
2023-04-26T07:00:43.050Z,1008.26
2023-04-26T07:01:43.120Z,1008.29
2023-04-26T07:02:43.153Z,1008.27
2023-04-26T07:03:43.214Z,1008.28
2023-04-26T07:04:43.338Z,1008.3
2023-04-26T07:05:43.110Z,1008.3
2023-04-26T07:06:45.933Z,1008.29
2023-04-26T07:07:48.935Z,1008.34
2023-04-26T07:08:49.366Z,1008.34
2023-04-26T07:10:43.079Z,1008.32
2023-04-26T07:11:43.223Z,1008.32
2023-04-26T07:12:43.064Z,1008.35
2023-04-26T07:13:43.062Z,1008.4
2023-04-26T07:14:43.072Z,1008.37
2023-04-26T07:15:43.112Z,1008.37
2023-04-26T07:16:43.075Z,1008.36
2023-04-26T07:17:43.225Z,1008.38
2023-04-26T07:18:43.061Z,1008.4
2023-04-26T07:19:43.056Z,1008.39
2023-04-26T07:20:43.195Z,1008.35
2023-04-26T07:21:43.053Z,1008.38
2023-04-26T07:23:43.075Z,1008.33
2023-04-26T07:24:43.055Z,1008.36
2023-04-26T07:25:43.044Z,1008.35
2023-04-26T07:26:43.160Z,1008.35
2023-04-26T07:27:46.050Z,1008.37
2023-04-26T07:28:49.611Z,1008.36
2023-04-26T07:29:50.709Z,1008.38
2023-04-26T07:31:43.067Z,1008.35
2023-04-26T07:32:43.141Z,1008.36
2023-04-26T07:33:43.136Z,1008.35
2023-04-26T07:34:43.045Z,1008.34
2023-04-26T07:35:43.057Z,1008.32
2023-04-26T07:36:43.052Z,1008.29
2023-04-26T07:37:43.079Z,1008.32
2023-04-26T07:38:43.226Z,1008.28
2023-04-26T07:39:43.051Z,1008.24
2023-04-26T07:40:43.053Z,1008.26
2023-04-26T07:41:46.083Z,1008.21
2023-04-26T07:43:43.062Z,1008.21
2023-04-26T07:44:43.136Z,1008.23
2023-04-26T07:45:43.071Z,1008.2
2023-04-26T07:46:43.073Z,1008.21
2023-04-26T07:47:43.285Z,1008.16
2023-04-26T07:48:46.292Z,1008.17
2023-04-26T07:49:50.032Z,1008.19
2023-04-26T07:50:50.820Z,1008.21
2023-04-26T07:52:43.065Z,1008.2
2023-04-26T07:53:43.067Z,1008.15
2023-04-26T07:54:43.076Z,1008.21
2023-04-26T07:55:43.074Z,1008.14
2023-04-26T07:56:43.056Z,1008.19
2023-04-26T07:57:43.055Z,1008.17
2023-04-26T07:58:43.057Z,1008.18
2023-04-26T07:59:43.084Z,1008.2
2023-04-26T08:00:43.067Z,1008.16
2023-04-26T08:01:43.090Z,1008.15
2023-04-26T08:02:47.147Z,1008.14
2023-04-26T08:04:43.144Z,1008.13
2023-04-26T08:05:43.432Z,1008.11
2023-04-26T08:06:43.058Z,1008.07
2023-04-26T08:07:43.054Z,1008.13
2023-04-26T08:08:43.796Z,1008.08
2023-04-26T08:09:47.399Z,1008.08
2023-04-26T08:10:49.733Z,1008.14
2023-04-26T08:11:50.954Z,1008.08
2023-04-26T08:13:43.123Z,1008.03
2023-04-26T08:14:43.078Z,1008.05
2023-04-26T08:15:43.085Z,1008.14
2023-04-26T08:16:43.063Z,1008.11
2023-04-26T08:17:43.096Z,1008.15
2023-04-26T08:18:46.874Z,1008.13
2023-04-26T08:19:43.066Z,1008.15
2023-04-26T08:20:43.067Z,1008.13
2023-04-26T08:21:43.061Z,1008.07
2023-04-26T08:22:43.124Z,1008.03
2023-04-26T08:23:43.068Z,1008.02
2023-04-26T08:24:43.057Z,1008.06
2023-04-26T08:25:43.092Z,1008.06
2023-04-26T08:26:43.075Z,1008.06
2023-04-26T08:27:43.056Z,1008.03
2023-04-26T08:28:43.051Z,1008.07
2023-04-26T08:29:43.513Z,1008.01
2023-04-26T08:30:47.257Z,1008.02
2023-04-26T08:31:49.954Z,1008.05
2023-04-26T08:32:49.807Z,1008.06
2023-04-26T08:33:43.053Z,1008
2023-04-26T08:34:43.057Z,1008.02
2023-04-26T08:35:43.077Z,1007.98
2023-04-26T08:36:43.055Z,1008.01
2023-04-26T08:37:43.048Z,1008.01
2023-04-26T08:38:43.281Z,1008
2023-04-26T08:39:43.058Z,1008.04
2023-04-26T08:40:43.069Z,1008.05
2023-04-26T08:41:43.055Z,1008.04
2023-04-26T08:42:43.048Z,1008.02
2023-04-26T08:43:43.051Z,1008.07
2023-04-26T08:44:43.064Z,1008.02
2023-04-26T08:45:43.060Z,1008.04
2023-04-26T08:46:43.100Z,1008.11
2023-04-26T08:47:43.068Z,1008.07
2023-04-26T08:48:43.049Z,1008.07
2023-04-26T08:49:43.056Z,1008.09
2023-04-26T08:50:43.638Z,1008.07
2023-04-26T08:51:47.269Z,1008.06
2023-04-26T08:52:49.958Z,1008.12
2023-04-26T08:53:50.167Z,1008.11
2023-04-26T08:54:43.124Z,1008.08
2023-04-26T08:55:43.063Z,1008.08
2023-04-26T08:56:43.059Z,1008.06
2023-04-26T08:57:43.060Z,1008.13
2023-04-26T08:58:43.127Z,1008.14
2023-04-26T08:59:43.053Z,1008.11
2023-04-26T09:00:43.064Z,1008.17
2023-04-26T09:01:43.062Z,1008.19
2023-04-26T09:02:43.180Z,1008.18
2023-04-26T09:03:43.123Z,1008.16
2023-04-26T09:04:43.188Z,1008.16
2023-04-26T09:05:43.060Z,1008.19
2023-04-26T09:06:43.051Z,1008.17
2023-04-26T09:07:43.081Z,1008.17
2023-04-26T09:08:43.054Z,1008.17
2023-04-26T09:09:43.059Z,1008.2
2023-04-26T09:10:43.069Z,1008.14
2023-04-26T09:11:43.820Z,1008.17
2023-04-26T09:12:47.797Z,1008.13
2023-04-26T09:13:49.977Z,1008.14
2023-04-26T09:14:49.606Z,1008.14
2023-04-26T09:15:43.195Z,1008.19
2023-04-26T09:16:43.235Z,1008.16
2023-04-26T09:17:43.135Z,1008.14
2023-04-26T09:18:43.062Z,1008.17
2023-04-26T09:19:43.164Z,1008.19
2023-04-26T09:20:43.228Z,1008.17
2023-04-26T09:21:43.057Z,1008.19
2023-04-26T09:22:43.084Z,1008.22
2023-04-26T09:23:43.280Z,1008.19
2023-04-26T09:24:43.148Z,1008.19
2023-04-26T09:25:43.065Z,1008.22
2023-04-26T09:26:43.058Z,1008.21
2023-04-26T09:27:43.085Z,1008.2
2023-04-26T09:28:43.050Z,1008.23
2023-04-26T09:29:43.181Z,1008.2
2023-04-26T09:30:43.263Z,1008.23
2023-04-26T09:31:43.097Z,1008.23
2023-04-26T09:32:43.049Z,1008.24
2023-04-26T09:33:44.568Z,1008.26
2023-04-26T09:34:48.083Z,1008.26
2023-04-26T09:35:49.232Z,1008.27
2023-04-26T09:37:58.685Z,1008.27
2023-04-26T09:39:43.060Z,1008.31
2023-04-26T09:40:43.051Z,1008.27
2023-04-26T09:41:43.122Z,1008.34
2023-04-26T09:42:43.072Z,1008.31
2023-04-26T09:43:43.116Z,1008.31
2023-04-26T09:44:43.312Z,1008.31
2023-04-26T09:45:43.052Z,1008.31
2023-04-26T09:46:43.087Z,1008.3
2023-04-26T09:47:43.060Z,1008.28
2023-04-26T09:48:43.078Z,1008.31
2023-04-26T09:49:43.054Z,1008.29
2023-04-26T09:50:43.197Z,1008.27
2023-04-26T09:51:43.058Z,1008.28
2023-04-26T09:52:43.049Z,1008.31
2023-04-26T09:53:43.069Z,1008.26
2023-04-26T09:54:44.721Z,1008.24
2023-04-26T09:55:48.006Z,1008.27
2023-04-26T09:56:50.192Z,1008.29
2023-04-26T09:58:43.086Z,1008.24
2023-04-26T09:59:43.047Z,1008.28
2023-04-26T10:00:43.062Z,1008.24
2023-04-26T10:01:43.070Z,1008.21
2023-04-26T10:02:43.136Z,1008.23
2023-04-26T10:03:43.257Z,1008.25
2023-04-26T10:04:43.101Z,1008.26
2023-04-26T10:05:43.060Z,1008.19
2023-04-26T10:06:43.056Z,1008.21
2023-04-26T10:07:43.049Z,1008.2
2023-04-26T10:08:43.066Z,1008.18
2023-04-26T10:09:43.048Z,1008.22
2023-04-26T10:10:43.055Z,1008.16
2023-04-26T10:11:43.408Z,1008.15
2023-04-26T10:12:43.045Z,1008.15
2023-04-26T10:13:43.137Z,1008.16
2023-04-26T10:14:43.072Z,1008.14
2023-04-26T10:15:44.785Z,1008.12
2023-04-26T10:16:48.069Z,1008.1
2023-04-26T10:17:53.286Z,1008.1
2023-04-26T10:19:43.062Z,1008.13
2023-04-26T10:20:43.061Z,1008.15
2023-04-26T10:21:43.046Z,1008.13
2023-04-26T10:22:43.094Z,1008.12
2023-04-26T10:23:43.074Z,1008.11
2023-04-26T10:24:43.067Z,1008.12
2023-04-26T10:25:43.155Z,1008.1
2023-04-26T10:26:43.105Z,1008.07
2023-04-26T10:27:43.120Z,1008.1
2023-04-26T10:28:43.050Z,1008.09
2023-04-26T10:29:43.066Z,1008.08
2023-04-26T10:30:43.055Z,1008.02
2023-04-26T10:31:43.097Z,1008.01
2023-04-26T10:32:43.072Z,1007.97
2023-04-26T10:33:43.049Z,1007.9
2023-04-26T10:34:43.053Z,1007.89
2023-04-26T10:35:43.054Z,1007.91
2023-04-26T10:36:44.951Z,1007.9
2023-04-26T10:37:48.224Z,1007.86
2023-04-26T10:38:50.703Z,1007.9
2023-04-26T10:40:43.487Z,1007.9
2023-04-26T10:41:43.056Z,1007.93
2023-04-26T10:42:44.116Z,1007.92
2023-04-26T10:43:43.125Z,1007.89
2023-04-26T10:44:43.196Z,1007.91
2023-04-26T10:45:43.104Z,1007.84
2023-04-26T10:46:43.129Z,1007.88
2023-04-26T10:47:43.270Z,1007.86
2023-04-26T10:48:43.050Z,1007.82
2023-04-26T10:49:43.137Z,1007.88
2023-04-26T10:50:43.076Z,1007.82
2023-04-26T10:51:43.068Z,1007.87
2023-04-26T10:52:43.395Z,1007.83
2023-04-26T10:53:43.059Z,1007.85
2023-04-26T10:54:43.064Z,1007.87
2023-04-26T10:55:43.242Z,1007.85
2023-04-26T10:56:43.266Z,1007.87
2023-04-26T10:57:44.998Z,1007.89
2023-04-26T10:58:48.287Z,1007.88
2023-04-26T10:59:54.507Z,1007.85
2023-04-26T11:01:43.274Z,1007.82
2023-04-26T11:02:43.570Z,1007.8
2023-04-26T11:03:43.177Z,1007.84
2023-04-26T11:04:43.316Z,1007.79
2023-04-26T11:05:43.437Z,1007.74
2023-04-26T11:06:43.075Z,1007.76
2023-04-26T11:07:43.264Z,1007.76
2023-04-26T11:08:43.262Z,1007.74
2023-04-26T11:09:43.058Z,1007.74
2023-04-26T11:10:43.344Z,1007.76
2023-04-26T11:11:43.052Z,1007.7
2023-04-26T11:12:43.057Z,1007.76
2023-04-26T11:13:43.080Z,1007.72
2023-04-26T11:14:43.049Z,1007.72
2023-04-26T11:15:43.108Z,1007.75
2023-04-26T11:16:43.099Z,1007.7
2023-04-26T11:17:43.068Z,1007.75
2023-04-26T11:18:45.112Z,1007.72
2023-04-26T11:19:48.385Z,1007.73
2023-04-26T11:20:50.543Z,1007.74
2023-04-26T11:22:43.069Z,1007.8
2023-04-26T11:23:43.101Z,1007.76
2023-04-26T11:24:43.062Z,1007.78
2023-04-26T11:25:43.067Z,1007.77
2023-04-26T11:26:43.072Z,1007.77
2023-04-26T11:27:43.062Z,1007.77
2023-04-26T11:28:43.050Z,1007.78
2023-04-26T11:29:43.143Z,1007.77
2023-04-26T11:30:43.052Z,1007.78
2023-04-26T11:31:43.118Z,1007.77
2023-04-26T11:32:43.189Z,1007.81
2023-04-26T11:33:43.081Z,1007.85
2023-04-26T11:34:43.059Z,1007.81
2023-04-26T11:35:43.067Z,1007.81
2023-04-26T11:36:43.078Z,1007.8
2023-04-26T11:37:43.077Z,1007.8
2023-04-26T11:38:43.092Z,1007.81
2023-04-26T11:39:45.162Z,1007.8
2023-04-26T11:40:47.873Z,1007.79
2023-04-26T11:41:50.865Z,1007.83
2023-04-26T11:43:43.070Z,1007.84
2023-04-26T11:44:43.580Z,1007.86
2023-04-26T11:45:43.073Z,1007.91
2023-04-26T11:46:43.097Z,1007.87
2023-04-26T11:47:43.146Z,1007.87
2023-04-26T11:48:43.051Z,1007.87
2023-04-26T11:49:43.059Z,1007.88
2023-04-26T11:50:43.053Z,1007.88
2023-04-26T11:51:43.056Z,1007.89
2023-04-26T11:52:43.164Z,1007.89
2023-04-26T11:53:43.212Z,1007.9
2023-04-26T11:54:43.060Z,1007.88
2023-04-26T11:55:43.311Z,1007.91
2023-04-26T11:56:43.421Z,1007.83
2023-04-26T11:57:43.164Z,1007.87
2023-04-26T11:58:43.092Z,1007.85
2023-04-26T11:59:43.052Z,1007.85
2023-04-26T12:00:45.288Z,1007.82
2023-04-26T12:01:48.198Z,1007.83
2023-04-26T12:02:50.909Z,1007.86
2023-04-26T12:04:43.230Z,1007.82
2023-04-26T12:05:43.060Z,1007.84
2023-04-26T12:06:43.070Z,1007.8
2023-04-26T12:07:43.137Z,1007.86
2023-04-26T12:08:43.058Z,1007.83
2023-04-26T12:09:43.384Z,1007.84
2023-04-26T12:10:43.068Z,1007.83
2023-04-26T12:11:43.061Z,1007.81
2023-04-26T12:12:43.211Z,1007.82
2023-04-26T12:13:43.064Z,1007.83
2023-04-26T12:14:43.222Z,1007.83
2023-04-26T12:15:43.064Z,1007.85
2023-04-26T12:16:43.216Z,1007.81
2023-04-26T12:17:43.217Z,1007.87
2023-04-26T12:18:43.120Z,1007.86
2023-04-26T12:19:43.047Z,1007.86
2023-04-26T12:20:43.275Z,1007.86
2023-04-26T12:21:45.325Z,1007.85
2023-04-26T12:22:48.430Z,1007.84
2023-04-26T12:24:50.351Z,1007.83
2023-04-26T12:26:43.065Z,1007.83
2023-04-26T12:27:43.242Z,1007.82
2023-04-26T12:28:43.166Z,1007.84
2023-04-26T12:29:43.055Z,1007.86
2023-04-26T12:30:43.093Z,1007.82
2023-04-26T12:31:43.158Z,1007.79
2023-04-26T12:32:43.271Z,1007.81
2023-04-26T12:33:43.230Z,1007.82
2023-04-26T12:34:43.186Z,1007.81
2023-04-26T12:35:43.255Z,1007.77
2023-04-26T12:36:43.302Z,1007.81
2023-04-26T12:37:43.405Z,1007.84
2023-04-26T12:38:43.279Z,1007.82
2023-04-26T12:39:43.369Z,1007.8
2023-04-26T12:40:44.394Z,1007.82
2023-04-26T12:41:43.049Z,1007.83
2023-04-26T12:42:43.631Z,1007.8
2023-04-26T12:43:45.699Z,1007.82
2023-04-26T12:44:48.289Z,1007.82
2023-04-26T12:45:49.407Z,1007.82